Startpagina
METAR-TAF:

METAR-TAF

Vliegvelden :

Aéroport de Luxembourg

Luxemburg, Luxemburg

breedte: 49-37N, lengte: 006-13E, hoogte: 376 m

Actueel weer

Dit bericht is 34 minuten geleden gemaakt, om 19:20 UTC
Wind 10 kt uit het oostnoordoosten
Temperatuur 4°C
Vochtigheid 81%
Druk 1026 hPa
Zicht 10 km of meer
geen wolken onder 1500 m en geen cumulonimbus

METAR: ELLX 161920Z 06010KT CAVOK 04/01 Q1026 NOSIG

Tijdstip: 20:54 (19:54 UTC)

Verwachting

Dit bericht is 2 uur en het 54 minuten geleden gemaakt, om 17:00 UTC
Verwachting geldig van 16 om 18 UTC tot 17 om 24 UTC
Wind 8 kt uit het oosten
Zicht 10 km of meer
geen wolken onder 1500 m en geen cumulonimbus
Kans 30%
van 17 om 02 UTC tot 17 om 08 UTC
Zicht: 3500 m
Verspreide wolken op 300 ft
nevel
Tijdelijke
van 17 om 08 UTC tot 17 om 16 UTC
Wind 15 kt uit het oosten met uitschieters tot 25 kt

TAF: ELLX 161700Z 1618/1724 08008KT CAVOK PROB30 1702/1708 3500 BR SCT003 TEMPO 1708/1716 08015G25KT

Waarnemingen en weersverwachtingen van meer dan 4000 vliegvelden (METAR en TAF).

De beschikbare stations zijn de gele en rode punten op de kaart.

Ga met uw muis naar het station om de naam te zien.

Klik dan om waarnemingen en weersverwachtingen te zien.

kaart wijzigen: klik op de groene knoppen met een zwart kruis om in te zoomen, op de groene knop met een streepje om uit te zoomen of op de groene pijlen voor aangrenzende kaarten.


METAR-TAF: